Airfield :
LOGIN :

Register | Disclaimer

   EN    FR    IT 

 










Legend :    VFR   Marginal VFR   IFR   Intensive IFR   Very Intensive IFR
Visi :
Ceiling :
>= 8 km
>= 3000ft
5 to 8 km
1000 to 3000 ft
1500m to 5 km
500 to 1000 ft
800 to 1500m
200 to 500 ft
< 800m
< 200 ft
Symbols :   Thunderstorms  Fog  Heavy snow  Heavy precipitations  Wind > 20 kt
SIGMETs :     Misc.  Thunderstorms  Icing  Turbulence  Mountain Waves  Volcanic Ashes






- Airport Elevation : 1046 ft
- IATA code : NUE


EDDN - Nuremberg

CURRENT METAR :
  • 181650Z AUTO 18009KT 150V210 CAVOK 29/13 Q1011 NOSIG

EXPIRED METARs :
  • 181620Z AUTO 17012KT CAVOK 30/13 Q1011 NOSIG
  • 181550Z AUTO 20010KT 130V230 CAVOK 30/14 Q1012 NOSIG
  • 181520Z AUTO 20010KT 160V230 CAVOK 29/13 Q1012 NOSIG
  • 181450Z AUTO 17008KT 130V200 CAVOK 29/14 Q1012 NOSIG
  • 181420Z AUTO 18010KT 140V220 CAVOK 29/14 Q1013 NOSIG
  • 181350Z AUTO 19011KT 140V230 CAVOK 29/14 Q1013 NOSIG
  • 181320Z AUTO 19009KT 140V260 CAVOK 29/15 Q1013 NOSIG
  • 181250Z AUTO 19005KT 090V230 CAVOK 29/14 Q1013 NOSIG
  • 181220Z AUTO VRB05KT CAVOK 28/13 Q1014 NOSIG

TAF TAF EDDN
Valid from the 18 at 12:00 until the 19 at 12:00 UTC


181100Z 1812/1912 15007KT CAVOK
BECMG 1819/1820 VRB03KT
PROB30
TEMPO 1902/1909 SHRA BKN040CB
BECMG 1906/1908 25007KT



MET'MAP, your aeronautical weather chart ! - Copyright ORBIFLY December 2007 - Disclaimer

ORBIFLY MET'MAP TEAM :

Programming & Development : Alexandra Zaïnal
Original concept : Baudouin d'Aumeries
Technical & hardware support : Manuel Goepfert
Assistance : Marc-Olivier Méhu




SOURCES & CREDITS :

   NOAA